createdAt,value
2023-02-18T00:01:18.190Z,96221.53
2023-02-18T00:03:46.440Z,96225.00
2023-02-18T00:06:15.413Z,96227.66
2023-02-18T00:08:44.160Z,96225.00
2023-02-18T00:11:12.237Z,96220.47
2023-02-18T00:13:41.711Z,96216.50
2023-02-18T00:16:12.051Z,96216.28
2023-02-18T00:18:40.313Z,96214.66
2023-02-18T00:21:09.087Z,96215.00
2023-02-18T00:23:37.232Z,96221.13
2023-02-18T00:26:11.727Z,96210.94
2023-02-18T00:28:42.306Z,96204.00
2023-02-18T00:31:11.264Z,96202.38
2023-02-18T00:33:39.410Z,96205.38
2023-02-18T00:36:09.540Z,96204.81
2023-02-18T00:38:37.844Z,96194.72
2023-02-18T00:41:06.779Z,96201.09
2023-02-18T00:43:35.320Z,96212.00
2023-02-18T00:46:05.545Z,96210.13
2023-02-18T00:48:34.064Z,96210.38
2023-02-18T00:51:02.346Z,96218.59
2023-02-18T00:53:30.615Z,96208.50
2023-02-18T00:55:58.809Z,96210.38
2023-02-18T00:58:26.980Z,96210.13
2023-02-18T01:00:55.524Z,96205.13
2023-02-18T01:03:25.325Z,96204.91
2023-02-18T01:05:53.731Z,96210.72
2023-02-18T01:08:22.181Z,96209.09
2023-02-18T01:10:53.652Z,96203.28
2023-02-18T01:13:21.790Z,96203.53
2023-02-18T01:15:49.870Z,96201.91
2023-02-18T01:18:18.013Z,96204.22
2023-02-18T01:20:47.506Z,96212.50
2023-02-18T01:23:16.727Z,96210.88
2023-02-18T01:25:44.857Z,96206.34
2023-02-18T01:28:13.588Z,96202.94
2023-02-18T01:30:42.286Z,96212.00
2023-02-18T01:33:10.454Z,96211.41
2023-02-18T01:35:40.092Z,96200.28
2023-02-18T01:38:09.564Z,96202.25
2023-02-18T01:40:37.886Z,96202.25
2023-02-18T01:43:06.032Z,96198.19
2023-02-18T01:46:00.019Z,96207.00
2023-02-18T01:48:31.049Z,96202.06
2023-02-18T01:51:01.654Z,96191.19
2023-02-18T01:53:32.868Z,96201.84
2023-02-18T01:56:01.650Z,96191.25
2023-02-18T01:58:30.047Z,96186.16
2023-02-18T02:00:58.266Z,96193.34
2023-02-18T02:03:26.357Z,96174.63
2023-02-18T02:05:54.460Z,96177.53
2023-02-18T02:08:22.502Z,96175.09
2023-02-18T02:11:03.522Z,96171.97
2023-02-18T02:13:38.850Z,96168.25
2023-02-18T02:16:09.656Z,96180.00
2023-02-18T02:18:45.399Z,96180.00
2023-02-18T02:21:59.171Z,96182.69
2023-02-18T02:24:55.258Z,96178.16
2023-02-18T02:27:26.580Z,96176.88
2023-02-18T02:30:30.943Z,96183.00
2023-02-18T02:33:33.896Z,96184.16
2023-02-18T02:36:05.034Z,96187.63
2023-02-18T02:38:35.925Z,96203.59
2023-02-18T02:41:11.865Z,96205.47
2023-02-18T02:43:44.982Z,96206.75
2023-02-18T02:46:19.114Z,96207.78
2023-02-18T02:48:49.549Z,96214.66
2023-02-18T02:51:23.061Z,96206.13
2023-02-18T02:53:51.121Z,96206.13
2023-02-18T02:56:20.772Z,96196.25
2023-02-18T02:58:50.248Z,96203.75
2023-02-18T03:01:24.395Z,96199.56
2023-02-18T03:04:27.966Z,96195.28
2023-02-18T03:07:16.353Z,96203.28
2023-02-18T03:09:53.024Z,96193.66
2023-02-18T03:12:25.880Z,96197.63
2023-02-18T03:15:00.851Z,96202.13
2023-02-18T03:17:30.707Z,96194.13
2023-02-18T03:20:01.520Z,96190.13
2023-02-18T03:22:32.532Z,96190.38
2023-02-18T03:25:02.573Z,96192.47
2023-02-18T03:27:32.103Z,96182.84
2023-02-18T03:30:01.881Z,96187.38
2023-02-18T03:32:30.218Z,96180.44
2023-02-18T03:35:01.274Z,96178.34
2023-02-18T03:37:31.236Z,96177.84
2023-02-18T03:39:59.945Z,96179.13
2023-02-18T03:42:28.784Z,96180.75
2023-02-18T03:44:56.924Z,96178.09
2023-02-18T03:47:25.442Z,96180.75
2023-02-18T03:49:53.529Z,96183.19
2023-02-18T03:52:21.684Z,96169.88
2023-02-18T03:54:52.646Z,96170.09
2023-02-18T03:57:20.753Z,96191.88
2023-02-18T03:59:48.954Z,96190.03
2023-02-18T04:02:17.328Z,96189.78
2023-02-18T04:04:45.480Z,96190.28
2023-02-18T04:07:13.556Z,96194.78
2023-02-18T04:09:41.701Z,96191.88
2023-02-18T04:12:11.166Z,96182.28
2023-02-18T04:14:39.521Z,96181.47
2023-02-18T04:17:07.628Z,96172.94
2023-02-18T04:19:35.806Z,96184.47
2023-02-18T04:22:04.037Z,96188.50
2023-02-18T04:24:32.105Z,96185.84
2023-02-18T04:27:00.206Z,96192.78
2023-02-18T04:29:30.008Z,96183.19
2023-02-18T04:31:58.115Z,96179.94
2023-02-18T04:34:26.190Z,96189.78
2023-02-18T04:36:54.359Z,96179.13
2023-02-18T04:39:22.368Z,96181.09
2023-02-18T04:41:50.792Z,96176.81
2023-02-18T04:44:18.852Z,96175.50
2023-02-18T04:46:48.326Z,96171.78
2023-02-18T04:49:16.441Z,96175.81
2023-02-18T04:51:44.507Z,96179.19
2023-02-18T04:54:12.534Z,96171.47
2023-02-18T04:56:41.018Z,96172.75
2023-02-18T04:59:09.730Z,96166.88
2023-02-18T05:01:37.781Z,96164.44
2023-02-18T05:04:07.360Z,96157.50
2023-02-18T05:06:35.470Z,96159.91
2023-02-18T05:09:03.809Z,96156.22
2023-02-18T05:11:31.886Z,96163.97
2023-02-18T05:13:59.898Z,96150.72
2023-02-18T05:16:28.058Z,96145.13
2023-02-18T05:18:56.120Z,96146.69
2023-02-18T05:21:25.598Z,96140.31
2023-02-18T05:23:53.935Z,96141.66
2023-02-18T05:26:21.964Z,96142.72
2023-02-18T05:28:50.006Z,96142.97
2023-02-18T05:31:18.211Z,96136.84
2023-02-18T05:33:46.412Z,96131.25
2023-02-18T05:36:14.832Z,96125.91
2023-02-18T05:38:44.292Z,96131.81
2023-02-18T05:41:12.375Z,96128.91
2023-02-18T05:43:54.301Z,96122.78
2023-02-18T05:46:22.514Z,96115.81
2023-02-18T05:48:50.611Z,96128.34
2023-02-18T05:51:19.103Z,96108.06
2023-02-18T05:53:48.576Z,96106.16
2023-02-18T05:56:16.681Z,96101.56
2023-02-18T05:58:44.720Z,96103.34
2023-02-18T06:01:12.832Z,96103.34
2023-02-18T06:03:41.084Z,96109.50
2023-02-18T06:06:09.768Z,96110.06
2023-02-18T06:08:38.132Z,96105.53
2023-02-18T06:11:07.742Z,96096.97
2023-02-18T06:13:35.822Z,96096.22
2023-02-18T06:16:03.874Z,96112.06
2023-02-18T06:18:31.988Z,96108.59
2023-02-18T06:21:00.090Z,96109.41
2023-02-18T06:23:28.203Z,96107.53
2023-02-18T06:25:56.290Z,96095.84
2023-02-18T06:28:25.852Z,96092.38
2023-02-18T06:30:54.348Z,96101.16
2023-02-18T06:33:22.815Z,96083.06
2023-02-18T06:35:55.450Z,96090.50
2023-02-18T06:38:23.527Z,96088.63
2023-02-18T06:40:51.672Z,96090.22
2023-02-18T06:43:19.856Z,96085.81
2023-02-18T06:45:49.301Z,96085.28
2023-02-18T06:48:17.996Z,96088.84
2023-02-18T06:50:46.096Z,96074.22
2023-02-18T06:53:14.200Z,96056.09
2023-02-18T06:55:42.690Z,96057.47
2023-02-18T06:58:10.866Z,96063.63
2023-02-18T07:00:39.283Z,96059.66
2023-02-18T07:03:08.927Z,96063.38
2023-02-18T07:05:37.077Z,96057.56
2023-02-18T07:08:05.371Z,96065.59
2023-02-18T07:10:33.416Z,96061.94
2023-02-18T07:13:01.512Z,96050.56
2023-02-18T07:15:29.914Z,96054.84
2023-02-18T07:17:58.009Z,96048.75
2023-02-18T07:20:27.541Z,96044.78
2023-02-18T07:22:55.681Z,96048.03
2023-02-18T07:25:23.791Z,96062.72
2023-02-18T07:27:52.211Z,96051.53
2023-02-18T07:30:21.041Z,96052.34
2023-02-18T07:32:49.275Z,96046.28
2023-02-18T07:35:23.570Z,96037.47
2023-02-18T07:37:53.325Z,96041.75
2023-02-18T07:40:22.390Z,96026.84
2023-02-18T07:42:50.792Z,96032.72
2023-02-18T07:45:20.552Z,96022.38
2023-02-18T07:47:48.600Z,96025.59
2023-02-18T07:50:16.673Z,96018.94
2023-02-18T07:52:44.733Z,96017.88
2023-02-18T07:55:14.459Z,96000.56
2023-02-18T07:57:56.354Z,96000.06
2023-02-18T08:00:24.896Z,96003.56
2023-02-18T08:02:52.991Z,96000.34
2023-02-18T08:05:21.219Z,96000.66
2023-02-18T08:07:49.408Z,96014.03
2023-02-18T08:10:19.160Z,96001.31
2023-02-18T08:12:47.212Z,96004.00
2023-02-18T08:15:16.564Z,96004.81
2023-02-18T08:17:44.624Z,95984.56
2023-02-18T08:20:13.349Z,95999.25
2023-02-18T08:22:41.732Z,95983.78
2023-02-18T08:25:15.745Z,95985.97
2023-02-18T08:27:57.506Z,95986.75
2023-02-18T08:30:25.678Z,95989.94
2023-02-18T08:32:53.858Z,95997.94
2023-02-18T08:35:22.298Z,95996.59
2023-02-18T08:37:52.396Z,95996.34
2023-02-18T08:40:22.367Z,95988.31
2023-02-18T08:42:50.434Z,95982.19
2023-02-18T08:45:20.073Z,95992.06
2023-02-18T08:48:18.158Z,95975.78
2023-02-18T08:50:36.540Z,95974.47
2023-02-18T08:53:04.621Z,95968.06
2023-02-18T08:55:32.758Z,95966.50
2023-02-18T08:58:00.848Z,95957.47
2023-02-18T09:00:30.321Z,95962.28
2023-02-18T09:02:58.704Z,95955.38
2023-02-18T09:05:26.970Z,95959.97
2023-02-18T09:07:55.003Z,95955.44
2023-02-18T09:10:23.251Z,95950.41
2023-02-18T09:12:51.307Z,95942.94
2023-02-18T09:15:19.898Z,95936.31
2023-02-18T09:17:49.486Z,95940.59
2023-02-18T09:20:17.599Z,95941.19
2023-02-18T09:22:45.637Z,95937.97
2023-02-18T09:25:13.906Z,95941.19
2023-02-18T09:27:42.054Z,95931.59
2023-02-18T09:30:11.725Z,95934.03
2023-02-18T09:32:39.831Z,95939.38
2023-02-18T09:35:09.949Z,95936.41
2023-02-18T09:37:39.908Z,95948.97
2023-02-18T09:40:09.286Z,95932.41
2023-02-18T09:42:37.364Z,95935.06
2023-02-18T09:45:06.733Z,95940.13
2023-02-18T09:47:36.485Z,95947.34
2023-02-18T09:50:07.152Z,95940.34
2023-02-18T09:52:38.365Z,95940.59
2023-02-18T09:55:20.920Z,95935.19
2023-02-18T09:57:50.558Z,95931.47
2023-02-18T10:00:21.177Z,95936.00
2023-02-18T10:02:55.326Z,95936.25
2023-02-18T10:05:23.633Z,95931.16
2023-02-18T10:07:54.777Z,95943.94
2023-02-18T10:10:26.352Z,95929.22
2023-02-18T10:12:54.858Z,95932.66
2023-02-18T10:15:25.211Z,95942.00
2023-02-18T10:17:53.356Z,95939.59
2023-02-18T10:20:23.680Z,95931.59
2023-02-18T10:22:53.251Z,95940.91
2023-02-18T10:25:22.516Z,95937.72
2023-02-18T10:27:50.810Z,95938.00
2023-02-18T10:30:24.493Z,95927.31
2023-02-18T10:32:54.588Z,95914.53
2023-02-18T10:35:24.853Z,95931.91
2023-02-18T10:38:01.425Z,95911.88
2023-02-18T10:40:32.314Z,95919.91
2023-02-18T10:43:05.196Z,95912.66
2023-02-18T10:45:38.483Z,95916.94
2023-02-18T10:48:14.697Z,95914.81
2023-02-18T10:50:43.574Z,95914.31
2023-02-18T10:53:14.201Z,95913.78
2023-02-18T10:55:43.387Z,95904.94
2023-02-18T10:58:30.044Z,95910.50
2023-02-18T11:00:58.169Z,95896.56
2023-02-18T11:03:27.651Z,95898.69
2023-02-18T11:05:56.769Z,95883.22
2023-02-18T11:08:27.984Z,95894.16
2023-02-18T11:10:56.125Z,95887.50
2023-02-18T11:13:28.292Z,95882.94
2023-02-18T11:15:59.032Z,95878.13
2023-02-18T11:18:34.041Z,95875.72
2023-02-18T11:21:02.919Z,95859.16
2023-02-18T11:23:32.463Z,95871.13
2023-02-18T11:26:02.174Z,95873.53
2023-02-18T11:28:41.534Z,95873.78
2023-02-18T11:31:10.066Z,95852.94
2023-02-18T11:33:40.392Z,95867.09
2023-02-18T11:36:17.781Z,95860.16
2023-02-18T11:38:48.933Z,95861.72
2023-02-18T11:41:18.445Z,95852.63
2023-02-18T11:43:48.025Z,95859.03
2023-02-18T11:46:17.251Z,95855.53
2023-02-18T11:48:45.759Z,95875.56
2023-02-18T11:51:18.315Z,95847.47
2023-02-18T11:53:59.883Z,95863.22
2023-02-18T11:56:29.131Z,95856.78
2023-02-18T11:58:57.821Z,95854.34
2023-02-18T12:01:37.609Z,95867.41
2023-02-18T12:04:09.480Z,95840.19
2023-02-18T12:06:40.002Z,95859.13
2023-02-18T12:09:13.840Z,95851.09
2023-02-18T12:11:42.883Z,95848.94
2023-02-18T12:14:13.303Z,95849.19
2023-02-18T12:16:47.111Z,95848.41
2023-02-18T12:19:24.844Z,95855.88
2023-02-18T12:21:57.317Z,95844.41
2023-02-18T12:24:37.699Z,95846.00
2023-02-18T12:27:11.585Z,95842.81
2023-02-18T12:29:46.702Z,95834.56
2023-02-18T12:32:20.759Z,95830.06
2023-02-18T12:34:58.693Z,95808.25
2023-02-18T12:37:51.716Z,95816.53
2023-02-18T12:40:39.528Z,95808.00
2023-02-18T12:43:10.509Z,95815.78
2023-02-18T12:45:47.174Z,95812.31
2023-02-18T12:48:26.805Z,95808.31
2023-02-18T12:51:05.295Z,95801.38
2023-02-18T12:53:55.693Z,95804.03
2023-02-18T12:56:49.040Z,95805.09
2023-02-18T12:59:23.998Z,95806.19
2023-02-18T13:01:56.309Z,95815.75
2023-02-18T13:04:32.099Z,95802.16
2023-02-18T13:07:11.736Z,95801.38
2023-02-18T13:09:46.843Z,95813.09
2023-02-18T13:12:17.378Z,95789.88
2023-02-18T13:14:49.951Z,95817.88
2023-02-18T13:17:18.408Z,95804.53
2023-02-18T13:19:49.037Z,95800.25
2023-02-18T13:22:17.841Z,95806.94
2023-02-18T13:24:47.237Z,95808.25
2023-02-18T13:27:19.651Z,95820.53
2023-02-18T13:29:49.975Z,95804.53
2023-02-18T13:32:21.550Z,95811.16
2023-02-18T13:34:51.961Z,95807.69
2023-02-18T13:37:24.019Z,95818.06
2023-02-18T13:39:53.495Z,95793.25
2023-02-18T13:42:38.633Z,95804.22
2023-02-18T13:45:29.832Z,95807.69
2023-02-18T13:47:58.260Z,95802.88
2023-02-18T13:50:34.588Z,95809.25
2023-02-18T13:53:23.840Z,95804.72
2023-02-18T13:55:56.917Z,95811.41
2023-02-18T13:58:28.416Z,95809.78
2023-02-18T14:00:58.371Z,95812.72
2023-02-18T14:03:38.532Z,95810.84
2023-02-18T14:06:16.324Z,95811.09
2023-02-18T14:08:44.502Z,95817.50
2023-02-18T14:11:27.300Z,95816.69
2023-02-18T14:13:57.221Z,95826.00
2023-02-18T14:16:25.709Z,95828.94
2023-02-18T14:19:01.322Z,95821.75
2023-02-18T14:21:40.734Z,95815.13
2023-02-18T14:24:18.648Z,95820.72
2023-02-18T14:26:48.199Z,95820.41
2023-02-18T14:29:22.074Z,95819.84
2023-02-18T14:31:53.757Z,95832.66
2023-02-18T14:34:55.366Z,95824.66
2023-02-18T14:37:45.365Z,95842.28
2023-02-18T14:40:40.509Z,95855.63
2023-02-18T14:43:11.756Z,95847.63
2023-02-18T14:45:55.366Z,95840.91
2023-02-18T14:48:40.050Z,95831.06
2023-02-18T14:51:08.358Z,95848.13
2023-02-18T14:53:37.246Z,95849.41
2023-02-18T14:56:06.272Z,95841.69
2023-02-18T14:58:36.482Z,95847.53
2023-02-18T15:01:09.303Z,95844.81
2023-02-18T15:03:37.420Z,95845.88
2023-02-18T15:06:07.512Z,95854.69
2023-02-18T15:08:38.627Z,95847.47
2023-02-18T15:11:07.249Z,95851.22
2023-02-18T15:13:36.894Z,95848.25
2023-02-18T15:16:06.280Z,95861.31
2023-02-18T15:18:38.758Z,95849.31
2023-02-18T15:21:07.989Z,95865.78
2023-02-18T15:23:36.584Z,95866.84
2023-02-18T15:26:05.205Z,95864.41
2023-02-18T15:28:36.590Z,95867.59
2023-02-18T15:31:04.961Z,95865.19
2023-02-18T15:33:33.061Z,95865.44
2023-02-18T15:36:07.079Z,95869.16
2023-02-18T15:38:35.245Z,95858.50
2023-02-18T15:41:04.083Z,95877.16
2023-02-18T15:43:32.290Z,95871.25
2023-02-18T15:46:00.359Z,95870.72
2023-02-18T15:48:33.664Z,95866.47
2023-02-18T15:51:16.379Z,95865.66
2023-02-18T15:53:46.826Z,95863.00
2023-02-18T15:56:18.184Z,95855.00
2023-02-18T15:58:46.350Z,95851.28
2023-02-18T16:01:27.061Z,95852.81
2023-02-18T16:03:55.525Z,95854.94
2023-02-18T16:06:26.121Z,95852.81
2023-02-18T16:08:57.716Z,95860.56
2023-02-18T16:11:25.876Z,95864.28
2023-02-18T16:13:53.993Z,95863.50
2023-02-18T16:16:25.002Z,95855.25
2023-02-18T16:18:53.161Z,95871.00
2023-02-18T16:21:27.811Z,95869.94
2023-02-18T16:23:58.228Z,95876.59
2023-02-18T16:26:29.840Z,95880.63
2023-02-18T16:29:03.579Z,95877.66
2023-02-18T16:31:32.017Z,95880.59
2023-02-18T16:34:00.209Z,95873.34
2023-02-18T16:36:30.013Z,95880.78
2023-02-18T16:38:58.784Z,95879.72
2023-02-18T16:41:26.979Z,95880.28
2023-02-18T16:43:55.164Z,95878.19
2023-02-18T16:46:23.842Z,95888.59
2023-02-18T16:48:54.983Z,95875.75
2023-02-18T16:51:24.348Z,95881.09
2023-02-18T16:53:53.917Z,95901.84
2023-02-18T16:56:23.939Z,95894.66
2023-02-18T16:58:52.221Z,95916.53
2023-02-18T17:01:24.116Z,95907.75
2023-02-18T17:03:52.774Z,95915.75
2023-02-18T17:06:21.226Z,95914.94
2023-02-18T17:08:49.597Z,95918.91
2023-02-18T17:11:25.782Z,95907.41
2023-02-18T17:13:54.711Z,95921.69
2023-02-18T17:16:23.807Z,95929.97
2023-02-18T17:18:51.906Z,95931.81
2023-02-18T17:21:20.969Z,95924.56
2023-02-18T17:23:49.184Z,95934.41
2023-02-18T17:26:18.890Z,95930.38
2023-02-18T17:28:48.409Z,95930.94
2023-02-18T17:31:18.611Z,95941.59
2023-02-18T17:33:46.746Z,95930.13
2023-02-18T17:36:14.816Z,95942.41
2023-02-18T17:38:42.928Z,95947.97
2023-02-18T17:41:11.377Z,95942.91
2023-02-18T17:43:39.479Z,95937.84
2023-02-18T17:46:11.808Z,95949.00
2023-02-18T17:48:40.228Z,95947.63
2023-02-18T17:51:08.599Z,95949.72
2023-02-18T17:53:46.156Z,95945.47
2023-02-18T17:56:14.245Z,95949.19
2023-02-18T17:58:42.635Z,95949.69
2023-02-18T18:01:12.200Z,95950.47
2023-02-18T18:03:40.326Z,95955.25
2023-02-18T18:06:15.530Z,95952.25
2023-02-18T18:08:43.624Z,95954.38
2023-02-18T18:11:12.397Z,95953.25
2023-02-18T18:13:40.760Z,95956.41
2023-02-18T18:16:11.922Z,95961.72
2023-02-18T18:18:40.154Z,95964.66
2023-02-18T18:21:10.547Z,95954.81
2023-02-18T18:23:39.098Z,95969.19
2023-02-18T18:26:07.230Z,95961.13
2023-02-18T18:28:37.553Z,95972.25
2023-02-18T18:31:06.403Z,95964.25
2023-02-18T18:33:35.885Z,95972.75
2023-02-18T18:36:04.097Z,95974.84
2023-02-18T18:38:32.196Z,95969.53
2023-02-18T18:41:00.276Z,95975.09
2023-02-18T18:43:32.597Z,95980.66
2023-02-18T18:46:01.144Z,95972.91
2023-02-18T18:48:29.303Z,95975.59
2023-02-18T18:50:58.850Z,95984.38
2023-02-18T18:53:28.238Z,95984.66
2023-02-18T18:55:57.110Z,95983.84
2023-02-18T18:58:25.378Z,95985.69
2023-02-18T19:00:54.698Z,95986.97
2023-02-18T19:03:23.152Z,95991.50
2023-02-18T19:05:51.731Z,95983.75
2023-02-18T19:08:21.296Z,95994.63
2023-02-18T19:10:50.732Z,95991.16
2023-02-18T19:13:19.964Z,95987.69
2023-02-18T19:15:48.143Z,95994.88
2023-02-18T19:18:17.251Z,95990.88
2023-02-18T19:20:45.705Z,95986.34
2023-02-18T19:23:13.824Z,95983.69
2023-02-18T19:25:43.324Z,95981.84
2023-02-18T19:28:13.801Z,95981.28
2023-02-18T19:30:42.400Z,95979.91
2023-02-18T19:33:12.290Z,95979.31
2023-02-18T19:35:40.617Z,95983.03
2023-02-18T19:38:08.983Z,95970.28
2023-02-18T19:40:37.209Z,95997.97
2023-02-18T19:43:06.728Z,96008.84
2023-02-18T19:45:35.332Z,96004.03
2023-02-18T19:48:03.473Z,95995.47
2023-02-18T19:50:31.767Z,95993.06
2023-02-18T19:53:00.599Z,95991.44
2023-02-18T19:55:28.705Z,95991.44
2023-02-18T19:57:56.729Z,96000.72
2023-02-18T20:00:26.581Z,96002.00
2023-02-18T20:02:54.724Z,95998.53
2023-02-18T20:05:23.115Z,96005.16
2023-02-18T20:07:51.473Z,95997.97
2023-02-18T20:10:20.773Z,95999.25
2023-02-18T20:12:52.989Z,96012.31
2023-02-18T20:15:21.406Z,96009.19
2023-02-18T20:17:50.995Z,96008.38
2023-02-18T20:20:19.440Z,96012.09
2023-02-18T20:22:47.617Z,96018.22
2023-02-18T20:25:15.726Z,96014.75
2023-02-18T20:27:59.533Z,96017.16
2023-02-18T20:30:29.002Z,96014.75
2023-02-18T20:32:58.625Z,96015.00
2023-02-18T20:35:26.999Z,96015.22
2023-02-18T20:37:55.201Z,96028.06
2023-02-18T20:40:23.654Z,96020.88
2023-02-18T20:42:51.879Z,96022.72
2023-02-18T20:45:20.285Z,96021.13
2023-02-18T20:47:48.454Z,96025.38
2023-02-18T20:50:18.060Z,96023.78
2023-02-18T20:52:46.595Z,96020.88
2023-02-18T20:55:14.865Z,96028.06
2023-02-18T20:57:42.991Z,96021.13
2023-02-18T21:00:13.178Z,96012.56
2023-02-18T21:02:41.274Z,96019.50
2023-02-18T21:05:09.445Z,96014.69
2023-02-18T21:07:39.393Z,96021.34
2023-02-18T21:10:08.084Z,96018.69
2023-02-18T21:12:36.165Z,96009.91
2023-02-18T21:15:04.354Z,96014.19
2023-02-18T21:17:32.443Z,96008.06
2023-02-18T21:20:01.402Z,96007.47
2023-02-18T21:22:29.513Z,96006.44
2023-02-18T21:25:00.472Z,96009.59
2023-02-18T21:27:28.829Z,96004.28
2023-02-18T21:29:59.837Z,96008.56
2023-02-18T21:32:28.072Z,96002.44
2023-02-18T21:34:56.525Z,96010.41
2023-02-18T21:37:24.687Z,96009.84
2023-02-18T21:39:52.920Z,96014.13
2023-02-18T21:42:22.448Z,96028.22
2023-02-18T21:44:50.581Z,96018.94
2023-02-18T21:47:18.999Z,96023.44
2023-02-18T21:49:47.085Z,96024.25
2023-02-18T21:52:15.193Z,96023.72
2023-02-18T21:54:44.591Z,96025.78
2023-02-18T21:57:13.654Z,96022.56
2023-02-18T21:59:43.284Z,96023.63
2023-02-18T22:02:15.728Z,96017.19
2023-02-18T22:04:43.828Z,96007.59
2023-02-18T22:07:11.989Z,96003.31
2023-02-18T22:09:40.341Z,95998.47
2023-02-18T22:12:08.771Z,95990.81
2023-02-18T22:14:37.208Z,95992.09
2023-02-18T22:17:06.752Z,95990.00
2023-02-18T22:19:34.856Z,95991.53
2023-02-18T22:22:03.435Z,95985.63
2023-02-18T22:24:31.604Z,95977.94
2023-02-18T22:27:01.080Z,95983.47
2023-02-18T22:29:29.925Z,95986.13
2023-02-18T22:31:58.105Z,95982.09
2023-02-18T22:34:27.760Z,95983.88
2023-02-18T22:36:55.855Z,95984.44
2023-02-18T22:39:24.414Z,95983.06
2023-02-18T22:41:52.869Z,95989.44
2023-02-18T22:44:21.061Z,95983.31
2023-02-18T22:46:49.196Z,95981.69
2023-02-18T22:49:17.408Z,95989.09
2023-02-18T22:51:47.011Z,95978.47
2023-02-18T22:54:16.522Z,95972.09
2023-02-18T22:56:44.723Z,95968.06
2023-02-18T22:59:12.913Z,95955.59
2023-02-18T23:01:41.721Z,95957.75
2023-02-18T23:04:11.214Z,95953.03
2023-02-18T23:06:39.944Z,95947.69
2023-02-18T23:09:10.405Z,95948.50
2023-02-18T23:11:38.570Z,95938.13
2023-02-18T23:14:22.464Z,95936.50
2023-02-18T23:17:09.081Z,95941.00
2023-02-18T23:19:37.480Z,95941.81
2023-02-18T23:22:05.882Z,95944.47
2023-02-18T23:24:35.891Z,95950.03
2023-02-18T23:27:04.116Z,95951.53
2023-02-18T23:29:32.232Z,95949.16
2023-02-18T23:32:00.306Z,95949.84
2023-02-18T23:34:28.639Z,95953.25
2023-02-18T23:36:57.114Z,95946.88
2023-02-18T23:39:25.475Z,95945.81
2023-02-18T23:41:54.944Z,95943.16
2023-02-18T23:44:24.004Z,95932.88
2023-02-18T23:46:52.126Z,95934.72
2023-02-18T23:49:22.143Z,95936.34
2023-02-18T23:51:50.317Z,95929.41
2023-02-18T23:54:18.495Z,95924.19
2023-02-18T23:56:46.566Z,95923.91
2023-02-18T23:59:16.039Z,95929.22
